createdAt,value
2018-06-27T00:00:52.083Z,12.30
2018-06-27T00:03:20.892Z,12.20
2018-06-27T00:05:49.669Z,12.00
2018-06-27T00:08:18.327Z,12.00
2018-06-27T00:10:47.045Z,11.90
2018-06-27T00:13:15.744Z,12.00
2018-06-27T00:15:44.792Z,12.10
2018-06-27T00:20:42.118Z,11.80
2018-06-27T00:23:10.885Z,11.60
2018-06-27T00:25:39.896Z,11.50
2018-06-27T00:28:08.929Z,11.50
2018-06-27T00:30:40.619Z,11.60
2018-06-27T00:33:09.299Z,11.60
2018-06-27T00:35:38.004Z,11.60
2018-06-27T00:38:18.281Z,11.60
2018-06-27T00:40:57.957Z,11.60
2018-06-27T00:43:30.136Z,11.70
2018-06-27T00:48:27.454Z,11.50
2018-06-27T00:50:56.350Z,11.30
2018-06-27T00:53:29.266Z,11.20
2018-06-27T00:55:58.004Z,11.10
2018-06-27T00:58:26.802Z,11.00
2018-06-27T01:00:55.568Z,11.10
2018-06-27T01:03:24.216Z,11.20
2018-06-27T01:05:53.594Z,11.20
2018-06-27T01:08:22.392Z,11.20
2018-06-27T01:10:51.109Z,11.10
2018-06-27T01:13:19.698Z,11.10
2018-06-27T01:15:48.390Z,11.20
2018-06-27T01:18:17.123Z,11.30
2018-06-27T01:20:45.840Z,11.30
2018-06-27T01:23:14.599Z,11.10
2018-06-27T01:25:43.496Z,11.00
2018-06-27T01:28:12.313Z,11.00
2018-06-27T01:33:09.389Z,11.00
2018-06-27T01:38:07.444Z,11.30
2018-06-27T01:40:37.481Z,11.40
2018-06-27T01:43:06.724Z,11.50
2018-06-27T01:45:35.777Z,11.40
2018-06-27T01:48:04.497Z,11.10
2018-06-27T01:57:50.005Z,11.00
2018-06-27T02:02:58.960Z,11.20
2018-06-27T02:05:28.937Z,11.10
2018-06-27T02:07:57.735Z,11.20
2018-06-27T02:10:26.493Z,11.20
2018-06-27T02:12:55.270Z,11.10
2018-06-27T02:15:24.088Z,11.00
2018-06-27T02:17:52.917Z,10.90
2018-06-27T02:20:21.763Z,10.80
2018-06-27T02:22:50.781Z,10.90
2018-06-27T02:25:19.578Z,10.90
2018-06-27T02:27:48.577Z,10.80
2018-06-27T02:30:18.535Z,10.80
2018-06-27T02:32:48.514Z,10.90
2018-06-27T02:35:17.168Z,11.00
2018-06-27T02:37:49.067Z,11.00
2018-06-27T02:42:46.342Z,10.90
2018-06-27T02:45:15.113Z,10.80
2018-06-27T02:50:12.074Z,10.60
2018-06-27T02:52:40.793Z,10.60
2018-06-27T02:55:09.682Z,10.60
2018-06-27T03:02:52.581Z,10.70
2018-06-27T03:05:30.179Z,10.70
2018-06-27T03:08:00.046Z,10.70
2018-06-27T03:10:40.339Z,10.70
2018-06-27T03:13:13.085Z,10.70
2018-06-27T03:22:52.778Z,10.70
2018-06-27T03:25:27.467Z,10.70
2018-06-27T03:36:42.178Z,10.50
2018-06-27T04:06:40.700Z,10.30
2018-06-27T04:43:23.013Z,11.30
2018-06-27T04:45:52.338Z,11.40
2018-06-27T04:48:54.673Z,11.40
2018-06-27T07:36:59.336Z,16.80
2018-06-27T16:07:38.770Z,24.40
2018-06-27T16:15:59.034Z,24.40
2018-06-27T16:19:12.227Z,24.40
2018-06-27T17:27:51.353Z,24.50
2018-06-27T17:41:41.514Z,24.40
2018-06-27T17:44:12.568Z,24.30
2018-06-27T18:00:27.154Z,24.00
2018-06-27T18:37:47.934Z,23.60
2018-06-27T19:16:24.365Z,22.60
2018-06-27T19:26:54.574Z,22.50
2018-06-27T19:29:32.296Z,22.30
2018-06-27T19:32:06.352Z,22.30
2018-06-27T19:34:39.914Z,22.20
2018-06-27T19:40:30.014Z,22.10
2018-06-27T19:43:02.382Z,22.00
2018-06-27T19:45:34.522Z,21.90
2018-06-27T19:48:03.746Z,21.80
2018-06-27T19:50:40.067Z,21.80
2018-06-27T19:54:03.127Z,21.70
2018-06-27T19:56:34.309Z,21.70
2018-06-27T19:59:04.596Z,21.60
2018-06-27T20:01:36.252Z,21.70
2018-06-27T20:04:07.093Z,21.60
